Time;durP1;ratioP1;P1;durP2;ratioP2;P2;SDS_P1;SDS_P2;PMS_P1;PMS_P2;Temp;Humidity;BMP_temperature;BMP_pressure;BME280_temperature;BME280_humidity;BME280_pressure;Samples;Min_cycle;Max_cycle;Signal;HPM_P1;HPM_P2
2022/07/18 00:00:55;;;;;;;1.95;1.48;;;;;;;;;;5076121;28;20078;-90
2022/07/18 00:03:22;;;;;;;1.70;1.38;;;;;;;;;;5076242;28;20066;-90
2022/07/18 00:05:49;;;;;;;3.53;1.35;;;;;;;;;;5076054;28;20484;-90
2022/07/18 00:08:16;;;;;;;1.67;1.58;;;;;;;;;;5075869;28;20140;-90
2022/07/18 00:10:43;;;;;;;2.30;1.40;;;;;;;;;;5076176;28;20084;-90
2022/07/18 00:13:11;;;;;;;1.50;1.20;;;;;;;;;;5075855;28;20072;-90
2022/07/18 00:15:38;;;;;;;2.75;1.35;;;;;;;;;;5076010;28;20140;-90
2022/07/18 00:18:05;;;;;;;2.60;1.30;;;;;;;;;;5075954;28;20074;-89
2022/07/18 00:20:33;;;;;;;2.38;1.30;;;;;;;;;;5075976;28;20408;-90
2022/07/18 00:23:00;;;;;;;1.90;1.02;;;;;;;;;;5075863;28;20071;-90
2022/07/18 00:25:27;;;;;;;3.08;1.05;;;;;;;;;;5075756;28;20076;-88
2022/07/18 00:27:54;;;;;;;1.20;1.10;;;;;;;;;;5075608;28;20052;-89
2022/07/18 00:30:21;;;;;;;3.05;1.30;;;;;;;;;;5075904;28;20127;-89
2022/07/18 00:32:49;;;;;;;1.58;0.98;;;;;;;;;;5075509;28;20552;-89
2022/07/18 00:35:16;;;;;;;1.85;1.30;;;;;;;;;;5075581;28;20075;-90
2022/07/18 00:37:43;;;;;;;2.67;1.38;;;;;;;;;;5076049;28;20127;-91
2022/07/18 00:40:10;;;;;;;2.15;1.13;;;;;;;;;;5075801;28;20071;-90
2022/07/18 00:42:37;;;;;;;1.48;1.10;;;;;;;;;;5075845;28;20059;-90
2022/07/18 00:45:05;;;;;;;1.92;1.27;;;;;;;;;;5075680;28;20048;-89
2022/07/18 00:47:32;;;;;;;3.25;1.38;;;;;;;;;;5075865;28;20063;-90
2022/07/18 00:49:59;;;;;;;1.52;1.20;;;;;;;;;;5075865;28;20075;-89
2022/07/18 00:52:26;;;;;;;4.25;1.42;;;;;;;;;;5075513;28;20135;-90
2022/07/18 00:54:54;;;;;;;1.70;1.20;;;;;;;;;;5075573;28;20084;-89
2022/07/18 00:57:21;;;;;;;2.58;1.42;;;;;;;;;;5079200;28;20499;-90
2022/07/18 01:02:34;;;;;;;1.80;1.40;;;;;;;;;;5097724;28;20090;-89
2022/07/18 01:05:02;;;;;;;2.45;1.40;;;;;;;;;;5079413;28;20044;-89
2022/07/18 01:07:29;;;;;;;1.40;1.25;;;;;;;;;;5079591;28;20047;-89
2022/07/18 01:09:56;;;;;;;3.78;1.58;;;;;;;;;;5079693;28;20055;-90
2022/07/18 01:12:23;;;;;;;1.60;1.45;;;;;;;;;;5079509;28;20067;-89
2022/07/18 01:14:51;;;;;;;1.75;1.20;;;;;;;;;;5079083;28;20052;-89
2022/07/18 01:17:19;;;;;;;1.40;1.15;;;;;;;;;;5079401;28;20449;-90
2022/07/18 01:19:47;;;;;;;2.33;1.30;;;;;;;;;;5079241;28;20097;-89
2022/07/18 01:22:15;;;;;;;3.75;1.48;;;;;;;;;;5078759;28;20138;-89
2022/07/18 01:24:43;;;;;;;4.63;1.67;;;;;;;;;;5079139;28;20072;-90
2022/07/18 01:27:14;;;;;;;2.35;1.30;;;;;;;;;;5079058;28;20071;-90
2022/07/18 01:29:41;;;;;;;1.75;1.25;;;;;;;;;;5079187;28;20454;-89
2022/07/18 01:32:09;;;;;;;3.08;1.40;;;;;;;;;;5078567;28;20052;-89
2022/07/18 01:34:36;;;;;;;4.68;1.30;;;;;;;;;;5078747;28;20060;-89
2022/07/18 01:37:04;;;;;;;4.93;1.38;;;;;;;;;;5078801;28;20052;-89
2022/07/18 01:39:31;;;;;;;2.10;1.27;;;;;;;;;;5078861;28;20079;-90
2022/07/18 01:42:03;;;;;;;1.65;1.20;;;;;;;;;;5078495;28;20051;-88
2022/07/18 01:44:30;;;;;;;4.82;1.88;;;;;;;;;;5078904;28;20095;-90
2022/07/18 01:46:58;;;;;;;2.55;1.30;;;;;;;;;;5078318;28;20465;-89
2022/07/18 01:49:25;;;;;;;3.10;1.35;;;;;;;;;;5078757;28;20075;-90
2022/07/18 01:51:54;;;;;;;2.13;1.33;;;;;;;;;;5078597;28;20135;-90
2022/07/18 01:54:22;;;;;;;4.63;1.38;;;;;;;;;;5078441;28;20075;-89
2022/07/18 01:56:49;;;;;;;5.57;1.67;;;;;;;;;;5080730;28;20071;-89
2022/07/18 01:59:16;;;;;;;2.05;1.27;;;;;;;;;;5082939;28;20044;-90
2022/07/18 02:01:44;;;;;;;2.03;1.35;;;;;;;;;;5080555;28;20076;-89
2022/07/18 02:04:11;;;;;;;3.00;1.52;;;;;;;;;;5078183;28;20058;-90
2022/07/18 02:06:38;;;;;;;2.83;1.27;;;;;;;;;;5077690;28;20067;-89
2022/07/18 02:09:06;;;;;;;2.78;1.42;;;;;;;;;;5078180;28;20044;-89
2022/07/18 02:11:34;;;;;;;3.90;1.38;;;;;;;;;;5080503;28;20144;-90
2022/07/18 02:14:02;;;;;;;2.28;1.10;;;;;;;;;;5080184;28;20059;-89
2022/07/18 02:16:29;;;;;;;2.97;1.50;;;;;;;;;;5078081;28;20063;-89
2022/07/18 02:18:57;;;;;;;2.17;1.50;;;;;;;;;;5078140;28;20488;-89
2022/07/18 02:21:24;;;;;;;2.22;1.30;;;;;;;;;;5077830;28;20081;-89
2022/07/18 02:23:51;;;;;;;3.55;1.60;;;;;;;;;;5077977;28;20536;-89
2022/07/18 02:26:19;;;;;;;1.65;1.38;;;;;;;;;;5077875;28;20071;-88
2022/07/18 02:28:46;;;;;;;1.83;1.40;;;;;;;;;;5077593;28;20072;-89
2022/07/18 02:31:13;;;;;;;2.33;1.67;;;;;;;;;;5077661;28;20480;-88
2022/07/18 02:33:40;;;;;;;1.70;1.13;;;;;;;;;;5077848;28;20047;-89
2022/07/18 02:36:07;;;;;;;3.78;1.40;;;;;;;;;;5077548;28;20237;-89
2022/07/18 02:38:35;;;;;;;2.35;1.35;;;;;;;;;;5077892;28;20465;-89
2022/07/18 02:41:02;;;;;;;1.52;1.30;;;;;;;;;;5077375;28;20559;-89
2022/07/18 02:43:29;;;;;;;2.83;1.40;;;;;;;;;;5077613;28;20064;-89
2022/07/18 02:45:57;;;;;;;2.63;1.30;;;;;;;;;;5077539;28;20071;-89
2022/07/18 02:48:24;;;;;;;2.70;1.60;;;;;;;;;;5077254;28;20058;-89
2022/07/18 02:50:51;;;;;;;1.33;1.23;;;;;;;;;;5077250;28;20135;-89
2022/07/18 02:53:19;;;;;;;1.65;1.50;;;;;;;;;;5077404;28;20071;-89
2022/07/18 02:55:46;;;;;;;1.83;1.30;;;;;;;;;;5077009;28;20044;-89
2022/07/18 02:58:13;;;;;;;2.92;1.33;;;;;;;;;;5077371;28;20071;-90
2022/07/18 03:00:40;;;;;;;2.67;1.08;;;;;;;;;;5077352;28;20072;-90
2022/07/18 03:03:07;;;;;;;6.00;1.52;;;;;;;;;;5077196;28;20060;-89
2022/07/18 03:05:35;;;;;;;4.93;1.70;;;;;;;;;;5077312;28;20047;-89
2022/07/18 03:08:02;;;;;;;6.30;4.10;;;;;;;;;;5077046;28;20067;-90
2022/07/18 03:10:29;;;;;;;30.65;22.05;;;;;;;;;;5076862;28;20515;-90
2022/07/18 03:12:57;;;;;;;19.98;14.05;;;;;;;;;;5076991;28;20048;-89
2022/07/18 03:15:24;;;;;;;9.90;7.55;;;;;;;;;;5076758;28;20044;-89
2022/07/18 03:17:51;;;;;;;7.80;5.25;;;;;;;;;;5076396;28;20081;-89
2022/07/18 03:20:18;;;;;;;5.50;3.70;;;;;;;;;;5076651;28;20055;-89
2022/07/18 03:22:45;;;;;;;4.38;3.67;;;;;;;;;;5076323;28;20142;-89
2022/07/18 03:25:12;;;;;;;5.32;2.28;;;;;;;;;;5076467;28;20067;-89
2022/07/18 03:27:42;;;;;;;6.57;2.80;;;;;;;;;;5077158;28;20083;-89
2022/07/18 03:30:09;;;;;;;2.33;2.13;;;;;;;;;;5076744;28;20063;-89
2022/07/18 03:32:36;;;;;;;4.60;2.55;;;;;;;;;;5076567;28;20487;-89
2022/07/18 03:35:04;;;;;;;4.47;2.65;;;;;;;;;;5076500;28;20110;-89
2022/07/18 03:37:31;;;;;;;2.33;2.13;;;;;;;;;;5076504;28;20072;-89
2022/07/18 03:39:58;;;;;;;5.80;2.50;;;;;;;;;;5076609;28;20091;-89
2022/07/18 03:42:25;;;;;;;2.17;1.23;;;;;;;;;;5076352;28;20135;-89
2022/07/18 03:44:52;;;;;;;4.03;2.00;;;;;;;;;;5076419;28;20075;-89
2022/07/18 03:47:20;;;;;;;8.43;1.70;;;;;;;;;;5076493;28;20131;-89
2022/07/18 03:49:47;;;;;;;2.45;2.30;;;;;;;;;;5076649;28;20079;-89
2022/07/18 03:52:14;;;;;;;2.72;2.33;;;;;;;;;;5075875;28;20128;-90
2022/07/18 03:54:41;;;;;;;1.88;1.77;;;;;;;;;;5076481;28;20044;-89
2022/07/18 03:57:08;;;;;;;7.07;2.20;;;;;;;;;;5076504;28;20052;-89
2022/07/18 03:59:35;;;;;;;7.28;3.78;;;;;;;;;;5076135;28;20485;-88
2022/07/18 04:02:03;;;;;;;8.25;3.05;;;;;;;;;;5075947;28;20103;-89
2022/07/18 04:04:30;;;;;;;7.32;3.17;;;;;;;;;;5075693;28;20071;-89
2022/07/18 04:07:00;;;;;;;8.88;3.10;;;;;;;;;;5075990;28;20102;-88
2022/07/18 04:09:27;;;;;;;3.13;2.40;;;;;;;;;;5076115;28;20135;-89
2022/07/18 04:11:55;;;;;;;11.55;2.70;;;;;;;;;;5075702;28;20071;-89
2022/07/18 04:14:22;;;;;;;6.25;2.17;;;;;;;;;;5076028;28;20489;-88
2022/07/18 04:16:49;;;;;;;3.92;1.80;;;;;;;;;;5075696;28;20071;-88
2022/07/18 04:19:17;;;;;;;3.92;1.85;;;;;;;;;;5075781;28;20047;-89
2022/07/18 04:21:44;;;;;;;2.38;1.52;;;;;;;;;;5075996;28;20539;-89
2022/07/18 04:24:11;;;;;;;4.15;1.75;;;;;;;;;;5075628;28;20068;-89
2022/07/18 04:26:39;;;;;;;7.30;2.10;;;;;;;;;;5075881;28;20056;-89
2022/07/18 04:29:06;;;;;;;3.53;2.33;;;;;;;;;;5075884;28;20105;-87
2022/07/18 04:31:33;;;;;;;4.65;2.30;;;;;;;;;;5074905;28;20098;-88
2022/07/18 04:34:00;;;;;;;3.30;1.80;;;;;;;;;;5077785;28;20052;-89
2022/07/18 04:36:28;;;;;;;2.47;1.70;;;;;;;;;;5077969;28;20112;-89
2022/07/18 04:38:55;;;;;;;2.55;2.00;;;;;;;;;;5075565;28;20048;-89
2022/07/18 04:41:24;;;;;;;6.32;2.05;;;;;;;;;;5075463;28;20496;-89
2022/07/18 04:43:52;;;;;;;2.90;1.88;;;;;;;;;;5075602;28;20067;-89
2022/07/18 04:46:19;;;;;;;2.83;1.58;;;;;;;;;;5075266;28;20107;-89
2022/07/18 04:48:47;;;;;;;6.45;1.70;;;;;;;;;;5075605;28;20063;-88
2022/07/18 04:51:14;;;;;;;4.88;1.60;;;;;;;;;;5075238;28;20091;-89
2022/07/18 04:53:41;;;;;;;2.67;1.58;;;;;;;;;;5075541;28;20052;-89
2022/07/18 04:56:08;;;;;;;3.83;1.52;;;;;;;;;;5075169;28;20079;-89
2022/07/18 04:58:35;;;;;;;5.95;1.98;;;;;;;;;;5075287;28;20082;-89
2022/07/18 05:01:03;;;;;;;3.75;1.33;;;;;;;;;;5075252;28;20156;-88
2022/07/18 05:03:30;;;;;;;3.05;1.60;;;;;;;;;;5075478;28;20072;-88
2022/07/18 05:05:57;;;;;;;2.03;1.42;;;;;;;;;;5075129;28;20413;-89
2022/07/18 05:08:25;;;;;;;4.00;1.65;;;;;;;;;;5075303;28;20084;-90
2022/07/18 05:10:52;;;;;;;1.73;1.33;;;;;;;;;;5075189;28;20047;-88
2022/07/18 05:13:19;;;;;;;10.25;1.65;;;;;;;;;;5075142;28;20135;-88
2022/07/18 05:15:46;;;;;;;2.60;1.48;;;;;;;;;;5075407;28;20063;-88
2022/07/18 05:18:13;;;;;;;2.60;1.40;;;;;;;;;;5075129;28;20056;-89
2022/07/18 05:20:41;;;;;;;1.50;1.27;;;;;;;;;;5075227;28;20539;-90
2022/07/18 05:23:10;;;;;;;9.25;1.40;;;;;;;;;;5075149;28;20135;-88
2022/07/18 05:25:37;;;;;;;2.83;1.30;;;;;;;;;;5075254;28;20098;-89
2022/07/18 05:28:04;;;;;;;3.70;1.20;;;;;;;;;;5075166;28;20095;-88
2022/07/18 05:30:31;;;;;;;3.00;1.08;;;;;;;;;;5075045;28;20064;-90
2022/07/18 05:32:58;;;;;;;5.03;1.60;;;;;;;;;;5073407;28;20237;-89
2022/07/18 05:35:26;;;;;;;2.35;1.05;;;;;;;;;;5075239;28;20071;-90
2022/07/18 05:37:53;;;;;;;4.32;1.20;;;;;;;;;;5075342;28;20048;-90
2022/07/18 05:40:20;;;;;;;3.85;1.10;;;;;;;;;;5075140;28;20488;-90
2022/07/18 05:42:49;;;;;;;2.05;1.17;;;;;;;;;;5077253;28;20060;-89
2022/07/18 05:45:20;;;;;;;4.10;1.53;;;;;;;;;;5079469;28;20040;-90
2022/07/18 05:47:47;;;;;;;1.52;1.20;;;;;;;;;;5078730;28;20564;-88
2022/07/18 05:50:15;;;;;;;4.50;1.15;;;;;;;;;;5079399;28;20075;-90
2022/07/18 05:52:42;;;;;;;3.60;1.20;;;;;;;;;;5078736;28;20063;-91
2022/07/18 05:55:09;;;;;;;4.75;1.30;;;;;;;;;;5078867;28;20044;-90
2022/07/18 05:57:37;;;;;;;7.32;1.33;;;;;;;;;;5078928;28;20060;-89
2022/07/18 06:00:08;;;;;;;1.85;1.20;;;;;;;;;;5078854;28;20044;-89
2022/07/18 06:02:35;;;;;;;4.82;1.10;;;;;;;;;;5078635;28;20075;-90
2022/07/18 06:05:03;;;;;;;7.95;1.00;;;;;;;;;;5078375;28;20061;-89
2022/07/18 06:07:51;;;;;;;3.38;1.00;;;;;;;;;;5081211;28;20420;-90
2022/07/18 06:10:18;;;;;;;9.00;1.52;;;;;;;;;;5078713;28;20059;-91
2022/07/18 06:12:45;;;;;;;4.50;1.55;;;;;;;;;;5078724;28;20449;-90
2022/07/18 06:15:12;;;;;;;4.60;1.35;;;;;;;;;;5078583;28;20555;-88
2022/07/18 06:17:40;;;;;;;4.40;1.45;;;;;;;;;;5078453;28;20473;-90
2022/07/18 06:20:07;;;;;;;7.90;1.85;;;;;;;;;;5078406;28;20056;-91
2022/07/18 06:22:35;;;;;;;4.40;1.45;;;;;;;;;;5078179;28;20040;-90
2022/07/18 06:25:03;;;;;;;20.13;3.60;;;;;;;;;;5078190;28;20059;-90
2022/07/18 06:27:30;;;;;;;13.25;2.45;;;;;;;;;;5078341;28;20098;-90
2022/07/18 06:29:59;;;;;;;10.75;1.95;;;;;;;;;;5078188;28;20075;-89
2022/07/18 06:32:26;;;;;;;18.25;3.10;;;;;;;;;;5077501;28;20074;-92
2022/07/18 06:34:53;;;;;;;14.25;2.97;;;;;;;;;;5077891;28;20059;-91
2022/07/18 06:37:20;;;;;;;19.90;2.65;;;;;;;;;;5078347;28;20048;-92
2022/07/18 06:39:47;;;;;;;19.27;2.38;;;;;;;;;;5078117;28;20044;-90
2022/07/18 06:42:14;;;;;;;13.60;1.73;;;;;;;;;;5077950;28;20068;-91
2022/07/18 06:44:42;;;;;;;14.30;1.80;;;;;;;;;;5077827;28;20063;-92
2022/07/18 06:47:09;;;;;;;7.00;1.42;;;;;;;;;;5077921;28;20072;-93
2022/07/18 06:49:36;;;;;;;4.53;1.27;;;;;;;;;;5078106;28;20086;-90
2022/07/18 06:52:03;;;;;;;6.50;1.17;;;;;;;;;;5077494;28;20052;-90
2022/07/18 06:54:33;;;;;;;6.40;1.38;;;;;;;;;;5076733;28;20044;-91
2022/07/18 06:57:00;;;;;;;9.52;1.20;;;;;;;;;;5077649;28;20066;-89
2022/07/18 06:59:27;;;;;;;3.50;0.90;;;;;;;;;;5087405;28;20047;-91
2022/07/18 07:01:54;;;;;;;1.08;0.88;;;;;;;;;;5087344;28;20404;-91
2022/07/18 07:04:21;;;;;;;3.45;1.10;;;;;;;;;;5077565;28;20059;-91
2022/07/18 07:06:48;;;;;;;4.35;1.20;;;;;;;;;;5077625;28;20484;-94
2022/07/18 07:09:16;;;;;;;4.72;1.30;;;;;;;;;;5077696;28;20467;-91
2022/07/18 07:11:43;;;;;;;1.63;0.98;;;;;;;;;;5077342;28;20048;-91
2022/07/18 07:14:10;;;;;;;5.85;1.20;;;;;;;;;;5077060;28;20109;-91
2022/07/18 07:16:37;;;;;;;4.53;1.20;;;;;;;;;;5077443;28;20044;-91
2022/07/18 07:19:05;;;;;;;3.63;1.23;;;;;;;;;;5077354;28;20052;-91
2022/07/18 07:21:32;;;;;;;2.58;0.80;;;;;;;;;;5077812;28;20075;-92
2022/07/18 07:23:59;;;;;;;2.35;1.33;;;;;;;;;;5076897;28;20130;-91
2022/07/18 07:26:26;;;;;;;6.65;1.00;;;;;;;;;;5076876;28;20511;-90
2022/07/18 07:28:54;;;;;;;4.82;1.20;;;;;;;;;;5077137;28;20545;-89
2022/07/18 07:31:21;;;;;;;5.68;1.00;;;;;;;;;;5076705;28;20575;-91
2022/07/18 07:33:48;;;;;;;2.47;0.93;;;;;;;;;;5077199;28;20048;-90
2022/07/18 07:36:16;;;;;;;4.30;1.20;;;;;;;;;;5076874;28;20048;-92
2022/07/18 07:38:43;;;;;;;3.03;1.30;;;;;;;;;;5076979;28;20075;-88
2022/07/18 07:41:13;;;;;;;4.43;0.90;;;;;;;;;;5076614;28;20091;-93
2022/07/18 07:43:40;;;;;;;2.95;0.80;;;;;;;;;;5076965;28;20059;-94
2022/07/18 07:46:07;;;;;;;4.47;1.13;;;;;;;;;;5078977;28;20048;-91
2022/07/18 07:48:35;;;;;;;3.13;0.93;;;;;;;;;;5077058;28;20066;-93
2022/07/18 07:51:03;;;;;;;1.50;1.00;;;;;;;;;;5076926;28;20109;-95
2022/07/18 07:53:30;;;;;;;4.88;0.93;;;;;;;;;;5076279;28;20497;-95
2022/07/18 07:55:58;;;;;;;1.27;0.95;;;;;;;;;;5076354;28;20562;-88
2022/07/18 07:58:25;;;;;;;1.08;0.98;;;;;;;;;;5076555;28;20543;-87
2022/07/18 08:00:52;;;;;;;2.95;0.85;;;;;;;;;;5076249;28;20476;-92
2022/07/18 08:03:19;;;;;;;2.25;0.90;;;;;;;;;;5076501;28;20048;-89
2022/07/18 08:05:48;;;;;;;1.95;0.70;;;;;;;;;;5075834;28;20067;-88
2022/07/18 08:08:15;;;;;;;5.05;1.02;;;;;;;;;;5075929;28;20078;-92
2022/07/18 08:10:43;;;;;;;1.23;1.05;;;;;;;;;;5076605;28;20075;-89
2022/07/18 08:13:11;;;;;;;2.03;0.95;;;;;;;;;;5076157;28;20051;-92
2022/07/18 08:15:38;;;;;;;2.67;0.90;;;;;;;;;;5076426;28;20051;-93
2022/07/18 08:18:05;;;;;;;3.13;1.10;;;;;;;;;;5076759;28;20078;-88
2022/07/18 08:20:34;;;;;;;2.55;0.63;;;;;;;;;;5075754;28;20078;-94
2022/07/18 08:23:06;;;;;;;3.00;1.00;;;;;;;;;;5078968;28;20056;-93
2022/07/18 08:25:35;;;;;;;3.28;0.75;;;;;;;;;;5075622;28;20044;-95
2022/07/18 08:28:03;;;;;;;2.78;0.93;;;;;;;;;;5075690;28;20052;-93
2022/07/18 08:30:30;;;;;;;1.67;0.65;;;;;;;;;;5077423;28;20048;-91
2022/07/18 08:32:58;;;;;;;2.88;0.75;;;;;;;;;;5076325;28;20523;-94
2022/07/18 08:35:25;;;;;;;1.83;1.00;;;;;;;;;;5076696;28;20052;-95
2022/07/18 08:37:53;;;;;;;2.58;1.15;;;;;;;;;;5077048;28;20101;-94
2022/07/18 08:40:20;;;;;;;2.58;1.13;;;;;;;;;;5076610;28;20052;-92
2022/07/18 08:42:50;;;;;;;4.75;0.65;;;;;;;;;;5079993;28;20044;-95
2022/07/18 08:45:37;;;;;;;3.05;0.82;;;;;;;;;;5081820;28;20136;-93
2022/07/18 08:48:04;;;;;;;3.78;0.65;;;;;;;;;;5079091;28;20102;-93
2022/07/18 08:50:32;;;;;;;4.75;0.95;;;;;;;;;;5079231;28;20139;-95
2022/07/18 08:52:59;;;;;;;1.08;0.73;;;;;;;;;;5076116;28;20060;-92
2022/07/18 08:55:27;;;;;;;2.40;0.57;;;;;;;;;;5077258;28;20044;-93
2022/07/18 08:58:01;;;;;;;4.07;0.60;;;;;;;;;;5077270;28;20055;-95
2022/07/18 09:00:48;;;;;;;2.35;0.70;;;;;;;;;;5080390;28;20044;-93
2022/07/18 09:03:16;;;;;;;3.45;0.63;;;;;;;;;;5077249;28;20056;-92
2022/07/18 09:05:43;;;;;;;3.30;0.80;;;;;;;;;;5078249;28;20055;-93
2022/07/18 09:08:19;;;;;;;0.60;0.60;;;;;;;;;;5075941;28;20131;-93
2022/07/18 09:10:59;;;;;;;0.98;0.40;;;;;;;;;;5076750;28;20094;-96
2022/07/18 09:13:39;;;;;;;0.75;0.52;;;;;;;;;;5076302;28;20066;-92
2022/07/18 09:16:14;;;;;;;2.28;0.70;;;;;;;;;;5075476;28;20134;-91
2022/07/18 09:18:43;;;;;;;1.40;0.50;;;;;;;;;;5080707;28;20489;-93
2022/07/18 09:21:12;;;;;;;0.68;0.57;;;;;;;;;;5090847;28;20106;-93
2022/07/18 09:23:41;;;;;;;1.48;0.60;;;;;;;;;;5081615;28;20044;-91
2022/07/18 09:26:11;;;;;;;0.88;0.80;;;;;;;;;;5079902;28;20477;-94
2022/07/18 09:28:48;;;;;;;1.58;0.52;;;;;;;;;;5079927;28;20067;-92
2022/07/18 09:31:39;;;;;;;2.45;0.70;;;;;;;;;;5082821;28;20057;-95
2022/07/18 09:34:07;;;;;;;1.48;0.60;;;;;;;;;;5078819;28;20048;-93
2022/07/18 09:36:36;;;;;;;1.98;0.70;;;;;;;;;;5081472;28;20071;-94
2022/07/18 09:39:20;;;;;;;3.88;0.98;;;;;;;;;;5079458;28;20052;-94
2022/07/18 09:41:47;;;;;;;5.38;0.98;;;;;;;;;;5081495;28;20397;-90
2022/07/18 09:44:15;;;;;;;3.80;0.88;;;;;;;;;;5079889;28;20044;-92
2022/07/18 09:46:59;;;;;;;1.73;0.70;;;;;;;;;;5079461;28;20059;-92
2022/07/18 09:49:30;;;;;;;2.10;0.60;;;;;;;;;;5078959;28;20105;-92
2022/07/18 09:52:02;;;;;;;1.08;0.60;;;;;;;;;;5079095;28;20056;-92
2022/07/18 09:54:36;;;;;;;1.63;0.63;;;;;;;;;;5078327;28;20507;-87
2022/07/18 09:57:04;;;;;;;2.88;0.70;;;;;;;;;;5079315;28;20074;-95
2022/07/18 09:59:31;;;;;;;0.93;0.60;;;;;;;;;;5078908;28;20048;-91
2022/07/18 10:01:59;;;;;;;2.47;0.68;;;;;;;;;;5078833;28;20040;-91
2022/07/18 10:04:26;;;;;;;6.70;0.68;;;;;;;;;;5078850;28;20048;-92
2022/07/18 10:06:54;;;;;;;0.90;0.73;;;;;;;;;;5079062;28;20135;-93
2022/07/18 10:09:21;;;;;;;0.52;0.50;;;;;;;;;;5078819;28;20094;-92
2022/07/18 10:11:48;;;;;;;0.77;0.70;;;;;;;;;;5078585;28;20075;-93
2022/07/18 10:14:15;;;;;;;0.98;0.68;;;;;;;;;;5078461;28;20072;-92
2022/07/18 10:16:44;;;;;;;1.85;0.68;;;;;;;;;;5078501;28;20075;-88
2022/07/18 10:19:12;;;;;;;1.20;0.60;;;;;;;;;;5078873;28;20535;-95
2022/07/18 10:21:41;;;;;;;1.48;0.70;;;;;;;;;;5097317;28;20043;-92
2022/07/18 10:24:09;;;;;;;1.30;0.70;;;;;;;;;;5078818;28;20048;-89
2022/07/18 10:26:36;;;;;;;0.70;0.70;;;;;;;;;;5080135;28;20063;-94
2022/07/18 10:29:03;;;;;;;1.40;0.60;;;;;;;;;;5077913;28;20075;-90
2022/07/18 10:31:35;;;;;;;0.75;0.73;;;;;;;;;;5077748;28;20527;-88
2022/07/18 10:34:11;;;;;;;1.70;0.67;;;;;;;;;;5077906;28;20130;-90
2022/07/18 10:36:39;;;;;;;1.08;0.80;;;;;;;;;;5078248;28;20048;-89
2022/07/18 10:39:24;;;;;;;1.30;0.90;;;;;;;;;;5080264;28;20102;-93
2022/07/18 10:41:52;;;;;;;1.30;0.95;;;;;;;;;;5078868;28;20082;-90
2022/07/18 10:44:29;;;;;;;2.30;0.82;;;;;;;;;;5079004;28;20515;-89
2022/07/18 10:47:03;;;;;;;1.58;0.70;;;;;;;;;;5077699;28;20059;-92
2022/07/18 10:49:48;;;;;;;0.70;0.70;;;;;;;;;;5078101;28;20040;-91
2022/07/18 10:52:35;;;;;;;1.85;1.15;;;;;;;;;;5077603;28;20079;-90
2022/07/18 10:55:08;;;;;;;1.05;0.82;;;;;;;;;;5077724;28;20045;-89
2022/07/18 10:57:39;;;;;;;0.73;0.73;;;;;;;;;;5077635;28;20084;-91
2022/07/18 11:00:08;;;;;;;1.10;0.70;;;;;;;;;;5077666;28;20076;-86
2022/07/18 11:02:46;;;;;;;0.70;0.70;;;;;;;;;;5077576;28;20101;-93
2022/07/18 11:05:25;;;;;;;0.50;0.50;;;;;;;;;;5076946;28;20086;-90
2022/07/18 11:07:58;;;;;;;0.85;0.80;;;;;;;;;;5077059;28;20071;-88
2022/07/18 11:10:45;;;;;;;1.90;1.00;;;;;;;;;;5077620;28;20048;-88
2022/07/18 11:13:31;;;;;;;0.98;0.95;;;;;;;;;;5077307;28;20071;-89
2022/07/18 11:16:06;;;;;;;1.08;0.98;;;;;;;;;;5076701;28;20048;-90
2022/07/18 11:18:40;;;;;;;0.80;0.80;;;;;;;;;;5077972;28;20423;-90
2022/07/18 11:21:19;;;;;;;1.13;0.80;;;;;;;;;;5077962;28;20408;-92
2022/07/18 11:23:49;;;;;;;1.60;1.00;;;;;;;;;;5077275;28;20043;-92
2022/07/18 11:26:17;;;;;;;1.10;0.80;;;;;;;;;;5076791;28;20044;-92
2022/07/18 11:28:56;;;;;;;1.10;0.82;;;;;;;;;;5078043;28;20515;-89
2022/07/18 11:31:24;;;;;;;1.30;0.90;;;;;;;;;;5076720;28;20075;-87
2022/07/18 11:33:51;;;;;;;5.20;1.00;;;;;;;;;;5077465;28;20052;-94
2022/07/18 11:36:30;;;;;;;0.93;0.93;;;;;;;;;;5078124;28;20059;-92
2022/07/18 11:38:59;;;;;;;1.02;1.02;;;;;;;;;;5085801;28;20082;-89
2022/07/18 11:41:27;;;;;;;1.02;1.02;;;;;;;;;;5079068;28;20040;-87
2022/07/18 11:43:55;;;;;;;2.78;1.00;;;;;;;;;;5076214;28;20071;-87
2022/07/18 11:46:23;;;;;;;1.15;1.05;;;;;;;;;;5076734;28;20074;-92
2022/07/18 11:49:04;;;;;;;1.35;1.25;;;;;;;;;;5079047;28;20492;-90
2022/07/18 11:51:42;;;;;;;0.98;0.98;;;;;;;;;;5075992;28;20094;-88
2022/07/18 11:54:09;;;;;;;0.90;0.90;;;;;;;;;;5076260;28;20474;-87
2022/07/18 11:56:47;;;;;;;1.90;1.05;;;;;;;;;;5076807;28;20139;-87
2022/07/18 11:59:15;;;;;;;1.00;1.00;;;;;;;;;;5078525;28;20071;-96
2022/07/18 12:01:44;;;;;;;1.13;1.08;;;;;;;;;;5076705;28;20056;-92
2022/07/18 12:04:24;;;;;;;1.45;1.00;;;;;;;;;;5077475;28;20074;-95
2022/07/18 12:07:10;;;;;;;0.98;0.80;;;;;;;;;;5078179;28;20505;-92
2022/07/18 12:09:37;;;;;;;0.93;0.93;;;;;;;;;;5077084;28;20447;-92
2022/07/18 12:12:09;;;;;;;1.33;0.90;;;;;;;;;;5076239;28;20055;-92
2022/07/18 12:14:59;;;;;;;1.88;0.75;;;;;;;;;;5078335;28;20055;-91
2022/07/18 12:17:27;;;;;;;3.05;0.85;;;;;;;;;;5076266;28;20064;-91
2022/07/18 12:20:09;;;;;;;1.65;0.85;;;;;;;;;;5077569;28;20040;-89
2022/07/18 12:22:36;;;;;;;2.45;1.27;;;;;;;;;;5076314;28;20051;-91
2022/07/18 12:25:04;;;;;;;7.43;1.00;;;;;;;;;;5076340;28;20475;-93
2022/07/18 12:27:31;;;;;;;4.32;0.90;;;;;;;;;;5077130;28;20192;-90
2022/07/18 12:30:04;;;;;;;3.47;1.00;;;;;;;;;;5076662;28;20102;-92
2022/07/18 12:32:31;;;;;;;;;;;;;;;;;;5075948;28;20411;-89
2022/07/18 12:35:02;;;;;;;6.85;1.30;;;;;;;;;;5075629;28;19924;-90
2022/07/18 12:37:30;;;;;;;2.05;0.80;;;;;;;;;;5076603;28;20086;-90
2022/07/18 12:40:02;;;;;;;3.22;0.82;;;;;;;;;;5075890;28;20475;-86
2022/07/18 12:42:50;;;;;;;2.75;0.80;;;;;;;;;;5078628;28;20571;-88
2022/07/18 12:45:17;;;;;;;2.42;1.00;;;;;;;;;;5076039;28;20052;-87
2022/07/18 12:47:44;;;;;;;4.22;1.13;;;;;;;;;;5075952;28;20064;-90
2022/07/18 12:50:11;;;;;;;1.75;0.93;;;;;;;;;;5076746;28;20056;-88
2022/07/18 12:52:41;;;;;;;0.95;0.80;;;;;;;;;;5074580;23;20509;-83
2022/07/18 12:55:09;;;;;;;0.90;0.90;;;;;;;;;;5058138;28;20072;-83
2022/07/18 12:57:36;;;;;;;0.90;0.90;;;;;;;;;;5058812;28;20053;-83
2022/07/18 13:00:04;;;;;;;0.85;0.85;;;;;;;;;;5059717;28;20123;-83
2022/07/18 13:02:31;;;;;;;0.75;0.75;;;;;;;;;;5059617;28;20084;-83
2022/07/18 13:04:58;;;;;;;0.73;0.70;;;;;;;;;;5075504;23;20052;-84
2022/07/18 13:07:25;;;;;;;1.80;1.00;;;;;;;;;;5059760;28;20075;-84
2022/07/18 13:09:53;;;;;;;5.07;0.85;;;;;;;;;;5061594;28;20098;-85
2022/07/18 13:12:20;;;;;;;1.00;1.00;;;;;;;;;;5078902;28;20123;-84
2022/07/18 13:14:47;;;;;;;2.47;1.00;;;;;;;;;;5063762;28;20068;-87
2022/07/18 13:17:14;;;;;;;3.20;0.93;;;;;;;;;;5062566;28;20556;-86
2022/07/18 13:19:41;;;;;;;2.33;0.88;;;;;;;;;;5061884;28;20094;-84
2022/07/18 13:22:08;;;;;;;0.98;0.88;;;;;;;;;;5062145;28;20048;-84
2022/07/18 13:24:37;;;;;;;1.08;0.95;;;;;;;;;;5062489;28;20052;-82
2022/07/18 13:27:04;;;;;;;1.00;0.90;;;;;;;;;;5062423;28;20056;-84
2022/07/18 13:29:32;;;;;;;0.88;0.70;;;;;;;;;;5080673;28;20481;-84
2022/07/18 13:32:00;;;;;;;1.95;0.90;;;;;;;;;;5079156;28;20048;-85
2022/07/18 13:34:28;;;;;;;1.08;0.80;;;;;;;;;;5062137;28;20067;-84
2022/07/18 13:36:55;;;;;;;1.63;0.70;;;;;;;;;;5062272;28;20048;-84
2022/07/18 13:39:22;;;;;;;1.00;1.00;;;;;;;;;;5063419;28;20052;-84
2022/07/18 13:41:50;;;;;;;3.65;1.10;;;;;;;;;;5060624;28;20448;-84
2022/07/18 13:44:17;;;;;;;3.72;1.08;;;;;;;;;;5061079;28;20049;-86
2022/07/18 13:46:44;;;;;;;2.13;1.05;;;;;;;;;;5060615;28;20094;-83
2022/07/18 13:49:12;;;;;;;2.85;0.90;;;;;;;;;;5062012;28;20052;-84
2022/07/18 13:51:39;;;;;;;1.88;1.17;;;;;;;;;;5063408;28;20049;-84
2022/07/18 13:54:07;;;;;;;1.02;1.02;;;;;;;;;;5063444;28;20048;-84
2022/07/18 13:56:34;;;;;;;1.65;0.80;;;;;;;;;;5080304;28;20048;-84
2022/07/18 13:59:01;;;;;;;2.05;1.23;;;;;;;;;;5059650;28;20106;-84
2022/07/18 14:01:28;;;;;;;1.48;0.88;;;;;;;;;;5079482;28;20048;-86
2022/07/18 14:03:56;;;;;;;1.02;0.98;;;;;;;;;;5060117;28;20074;-87
2022/07/18 14:06:23;;;;;;;2.00;1.00;;;;;;;;;;5062137;28;20044;-88
2022/07/18 14:08:50;;;;;;;2.50;0.95;;;;;;;;;;5061703;28;20456;-85
2022/07/18 14:11:17;;;;;;;5.40;1.23;;;;;;;;;;5062752;28;20071;-85
2022/07/18 14:13:46;;;;;;;1.60;1.10;;;;;;;;;;5063729;28;20071;-85
2022/07/18 14:16:14;;;;;;;1.33;1.23;;;;;;;;;;5065394;28;20064;-84
2022/07/18 14:18:42;;;;;;;5.32;1.00;;;;;;;;;;5062685;28;20052;-85
2022/07/18 14:21:09;;;;;;;2.50;1.00;;;;;;;;;;5064683;28;20051;-84
2022/07/18 14:23:43;;;;;;;2.83;1.10;;;;;;;;;;5068177;28;20045;-84
2022/07/18 14:26:10;;;;;;;1.70;1.10;;;;;;;;;;5067117;28;20106;-84
2022/07/18 14:28:37;;;;;;;1.60;1.10;;;;;;;;;;5066247;28;20070;-84
2022/07/18 14:31:04;;;;;;;2.85;1.30;;;;;;;;;;5065714;28;20413;-85
2022/07/18 14:33:32;;;;;;;1.38;1.27;;;;;;;;;;5071355;28;20052;-87
2022/07/18 14:35:59;;;;;;;1.25;1.00;;;;;;;;;;5078258;28;20089;-87
2022/07/18 14:38:26;;;;;;;2.38;1.00;;;;;;;;;;5077724;28;20102;-84
2022/07/18 14:40:53;;;;;;;1.25;1.05;;;;;;;;;;5059704;28;20102;-85
2022/07/18 14:43:21;;;;;;;5.35;1.23;;;;;;;;;;5060384;28;20048;-84
2022/07/18 14:45:48;;;;;;;4.60;1.30;;;;;;;;;;5059248;28;20482;-84
2022/07/18 14:48:29;;;;;;;1.05;1.00;;;;;;;;;;5061543;28;20135;-84
2022/07/18 14:50:57;;;;;;;2.55;1.20;;;;;;;;;;5059798;28;20102;-84
2022/07/18 14:53:24;;;;;;;1.20;1.00;;;;;;;;;;5061954;28;20048;-84
2022/07/18 14:55:51;;;;;;;1.70;1.27;;;;;;;;;;5061032;28;20543;-85